createdAt,value
2023-02-08T00:03:36.272Z,101514.28
2023-02-08T00:06:23.392Z,101510.09
2023-02-08T00:09:10.516Z,101506.75
2023-02-08T00:11:57.533Z,101536.56
2023-02-08T00:14:44.703Z,101532.41
2023-02-08T00:17:32.336Z,101527.28
2023-02-08T00:20:19.624Z,101509.00
2023-02-08T00:23:06.858Z,101535.41
2023-02-08T00:25:54.013Z,101517.16
2023-02-08T00:28:41.098Z,101514.66
2023-02-08T00:31:29.556Z,101512.22
2023-02-08T00:34:16.644Z,101521.13
2023-02-08T00:37:03.731Z,101514.31
2023-02-08T00:39:50.765Z,101521.44
2023-02-08T00:42:37.879Z,101519.63
2023-02-08T00:45:25.068Z,101497.75
2023-02-08T00:48:12.156Z,101496.88
2023-02-08T00:51:09.618Z,101494.25
2023-02-08T00:53:56.661Z,101506.59
2023-02-08T00:56:44.497Z,101503.97
2023-02-08T00:59:31.578Z,101517.13
2023-02-08T01:02:18.825Z,101501.44
2023-02-08T01:05:06.613Z,101504.09
2023-02-08T01:07:53.749Z,101501.44
2023-02-08T01:10:41.627Z,101474.41
2023-02-08T01:13:28.873Z,101470.97
2023-02-08T01:16:20.711Z,101512.97
2023-02-08T01:19:07.926Z,101492.00
2023-02-08T01:21:55.163Z,101490.28
2023-02-08T01:24:42.297Z,101484.16
2023-02-08T01:27:29.343Z,101491.25
2023-02-08T01:30:17.688Z,101500.88
2023-02-08T01:33:04.782Z,101492.13
2023-02-08T01:35:53.021Z,101484.25
2023-02-08T01:38:40.195Z,101478.16
2023-02-08T01:41:33.873Z,101500.03
2023-02-08T01:45:06.048Z,101499.16
2023-02-08T01:47:58.705Z,101506.16
2023-02-08T01:51:20.621Z,101501.81
2023-02-08T01:54:10.383Z,101486.94
2023-02-08T01:56:57.674Z,101456.34
2023-02-08T01:59:53.423Z,101466.88
2023-02-08T02:02:41.958Z,101468.63
2023-02-08T02:05:35.544Z,101448.50
2023-02-08T02:08:22.762Z,101482.63
2023-02-08T02:11:09.900Z,101475.63
2023-02-08T02:13:58.391Z,101483.50
2023-02-08T02:16:45.601Z,101494.03
2023-02-08T02:20:08.110Z,101483.56
2023-02-08T02:23:25.416Z,101478.31
2023-02-08T02:26:40.106Z,101492.25
2023-02-08T02:29:58.125Z,101496.63
2023-02-08T02:32:55.636Z,101483.53
2023-02-08T02:36:01.124Z,101481.78
2023-02-08T02:39:15.740Z,101473.91
2023-02-08T02:42:47.999Z,101469.53
2023-02-08T02:46:19.922Z,101471.31
2023-02-08T02:49:12.754Z,101476.56
2023-02-08T02:52:06.141Z,101474.81
2023-02-08T02:54:56.143Z,101465.22
2023-02-08T02:57:47.185Z,101481.81
2023-02-08T03:00:34.512Z,101474.81
2023-02-08T03:03:25.362Z,101459.97
2023-02-08T03:06:25.605Z,101464.34
2023-02-08T03:09:12.615Z,101474.84
2023-02-08T03:12:12.175Z,101441.59
2023-02-08T03:15:35.561Z,101477.47
2023-02-08T03:18:52.556Z,101478.31
2023-02-08T03:21:55.503Z,101455.59
2023-02-08T03:25:03.396Z,101472.19
2023-02-08T03:28:01.958Z,101473.06
2023-02-08T03:31:18.947Z,101470.47
2023-02-08T03:34:13.268Z,101439.88
2023-02-08T03:37:10.306Z,101430.25
2023-02-08T03:40:06.633Z,101432.00
2023-02-08T03:42:57.040Z,101449.47
2023-02-08T03:45:50.264Z,101461.69
2023-02-08T03:48:40.862Z,101444.25
2023-02-08T03:51:30.337Z,101465.19
2023-02-08T03:54:24.492Z,101454.69
2023-02-08T03:57:18.705Z,101469.56
2023-02-08T04:00:14.621Z,101459.06
2023-02-08T04:03:26.226Z,101430.22
2023-02-08T04:06:13.505Z,101448.50
2023-02-08T04:09:01.633Z,101437.19
2023-02-08T04:11:48.733Z,101459.88
2023-02-08T04:14:35.795Z,101452.03
2023-02-08T04:17:22.868Z,101438.88
2023-02-08T04:20:10.673Z,101440.66
2023-02-08T04:22:57.781Z,101461.66
2023-02-08T04:25:44.920Z,101453.75
2023-02-08T04:28:32.009Z,101443.28
2023-02-08T04:31:19.196Z,101446.78
2023-02-08T04:34:06.364Z,101454.63
2023-02-08T04:36:53.571Z,101461.53
2023-02-08T04:39:40.622Z,101457.22
2023-02-08T04:42:28.093Z,101452.84
2023-02-08T04:45:15.253Z,101445.00
2023-02-08T04:48:02.453Z,101431.00
2023-02-08T04:50:49.547Z,101448.50
2023-02-08T04:53:36.622Z,101450.25
2023-02-08T04:56:23.762Z,101447.59
2023-02-08T04:59:10.861Z,101438.00
2023-02-08T05:01:58.048Z,101464.22
2023-02-08T05:04:45.237Z,101466.84
2023-02-08T05:07:33.382Z,101464.25
2023-02-08T05:10:20.557Z,101425.78
2023-02-08T05:13:07.795Z,101475.63
2023-02-08T05:15:54.887Z,101476.50
2023-02-08T05:18:42.128Z,101470.38
2023-02-08T05:21:30.420Z,101466.00
2023-02-08T05:24:17.645Z,101459.88
2023-02-08T05:27:04.702Z,101442.41
2023-02-08T05:29:51.814Z,101472.13
2023-02-08T05:32:38.928Z,101447.66
2023-02-08T05:35:25.970Z,101465.16
2023-02-08T05:38:13.009Z,101454.69
2023-02-08T05:41:00.074Z,101469.56
2023-02-08T05:43:47.146Z,101454.69
2023-02-08T05:46:35.463Z,101455.56
2023-02-08T05:49:24.310Z,101471.31
2023-02-08T05:52:11.500Z,101475.69
2023-02-08T05:54:58.509Z,101467.81
2023-02-08T05:57:45.568Z,101467.81
2023-02-08T06:00:32.619Z,101445.09
2023-02-08T06:03:19.739Z,101446.88
2023-02-08T06:06:07.968Z,101460.84
2023-02-08T06:08:55.027Z,101469.59
2023-02-08T06:11:42.066Z,101462.59
2023-02-08T06:14:29.091Z,101466.09
2023-02-08T06:17:16.132Z,101466.97
2023-02-08T06:20:03.434Z,101470.47
2023-02-08T06:22:50.647Z,101458.22
2023-02-08T06:25:37.904Z,101464.34
2023-02-08T06:28:25.093Z,101473.06
2023-02-08T06:31:12.217Z,101456.47
2023-02-08T06:33:59.273Z,101466.09
2023-02-08T06:36:46.508Z,101469.56
2023-02-08T06:39:33.623Z,101470.44
2023-02-08T06:42:20.675Z,101469.56
2023-02-08T06:45:11.022Z,101489.66
2023-02-08T06:47:59.314Z,101462.59
2023-02-08T06:50:46.343Z,101473.09
2023-02-08T06:53:33.428Z,101469.59
2023-02-08T06:56:20.542Z,101479.19
2023-02-08T06:59:07.631Z,101474.84
2023-02-08T07:01:54.687Z,101480.94
2023-02-08T07:04:41.936Z,101472.19
2023-02-08T07:07:29.105Z,101490.56
2023-02-08T07:10:16.779Z,101481.84
2023-02-08T07:13:04.114Z,101483.56
2023-02-08T07:15:51.146Z,101491.41
2023-02-08T07:18:38.246Z,101483.56
2023-02-08T07:21:25.363Z,101489.69
2023-02-08T07:24:12.360Z,101506.28
2023-02-08T07:26:59.375Z,101500.19
2023-02-08T07:29:46.440Z,101501.06
2023-02-08T07:32:34.833Z,101505.44
2023-02-08T07:35:22.106Z,101522.03
2023-02-08T07:38:10.269Z,101524.66
2023-02-08T07:41:08.482Z,101529.00
2023-02-08T07:43:55.564Z,101524.66
2023-02-08T07:46:42.659Z,101525.53
2023-02-08T07:49:30.413Z,101521.16
2023-02-08T07:52:17.420Z,101512.44
2023-02-08T07:55:04.639Z,101467.84
2023-02-08T07:57:51.750Z,101515.94
2023-02-08T08:00:39.023Z,101508.06
2023-02-08T08:03:26.254Z,101495.84
2023-02-08T08:06:13.414Z,101506.31
2023-02-08T08:09:00.576Z,101494.94
2023-02-08T08:11:47.663Z,101487.94
2023-02-08T08:14:34.659Z,101504.56
2023-02-08T08:17:21.831Z,101507.16
2023-02-08T08:20:11.107Z,101505.44
2023-02-08T08:22:58.318Z,101473.06
2023-02-08T08:25:45.387Z,101509.81
2023-02-08T08:28:32.629Z,101529.88
2023-02-08T08:31:22.002Z,101539.50
2023-02-08T08:34:09.220Z,101532.50
2023-02-08T08:37:01.708Z,101543.88
2023-02-08T08:39:49.917Z,101536.88
2023-02-08T08:42:39.859Z,101529.00
2023-02-08T08:45:27.114Z,101516.75
2023-02-08T08:48:14.178Z,101508.88
2023-02-08T08:51:01.370Z,101512.34
2023-02-08T08:53:48.467Z,101515.81
2023-02-08T08:56:35.573Z,101518.50
2023-02-08T08:59:22.749Z,101510.53
2023-02-08T09:02:13.664Z,101532.41
2023-02-08T09:05:00.692Z,101529.78
2023-02-08T09:07:47.754Z,101528.00
2023-02-08T09:10:34.818Z,101519.22
2023-02-08T09:13:22.037Z,101499.00
2023-02-08T09:16:13.132Z,101505.72
2023-02-08T09:19:08.396Z,101518.47
2023-02-08T09:21:55.527Z,101510.19
2023-02-08T09:24:42.668Z,101507.16
2023-02-08T09:27:29.908Z,101507.50
2023-02-08T09:30:17.051Z,101493.41
2023-02-08T09:33:04.163Z,101480.63
2023-02-08T09:35:51.207Z,101483.31
2023-02-08T09:38:38.908Z,101498.34
2023-02-08T09:41:44.433Z,101505.19
2023-02-08T09:44:40.121Z,101501.25
2023-02-08T09:47:34.314Z,101502.94
2023-02-08T09:50:44.788Z,101503.41
2023-02-08T09:53:40.513Z,101505.56
2023-02-08T09:56:36.440Z,101487.19
2023-02-08T09:59:29.608Z,101502.34
2023-02-08T10:02:30.150Z,101508.44
2023-02-08T10:05:22.427Z,101491.59
2023-02-08T10:08:11.891Z,101484.34
2023-02-08T10:11:01.999Z,101492.19
2023-02-08T10:14:07.797Z,101488.72
2023-02-08T10:17:21.201Z,101486.13
2023-02-08T10:20:22.932Z,101492.22
2023-02-08T10:23:21.931Z,101486.34
2023-02-08T10:26:40.442Z,101482.84
2023-02-08T10:29:35.830Z,101482.72
2023-02-08T10:33:12.930Z,101474.97
2023-02-08T10:36:00.058Z,101459.97
2023-02-08T10:38:51.732Z,101454.59
2023-02-08T10:41:39.049Z,101467.78
2023-02-08T10:45:24.253Z,101454.50
2023-02-08T10:48:20.111Z,101455.13
2023-02-08T10:51:12.540Z,101453.63
2023-02-08T10:53:59.804Z,101442.91
2023-02-08T10:56:58.315Z,101445.75
2023-02-08T10:59:56.507Z,101431.91
2023-02-08T11:02:44.011Z,101439.91
2023-02-08T11:05:38.750Z,101436.88
2023-02-08T11:08:27.904Z,101441.94
2023-02-08T11:11:15.529Z,101431.41
2023-02-08T11:14:16.365Z,101447.09
2023-02-08T11:17:03.500Z,101426.03
2023-02-08T11:19:50.997Z,101435.63
2023-02-08T11:22:38.166Z,101427.56
2023-02-08T11:25:38.904Z,101417.47
2023-02-08T11:28:31.200Z,101426.75
2023-02-08T11:31:21.116Z,101417.28
2023-02-08T11:34:11.525Z,101384.69
2023-02-08T11:37:02.575Z,101390.53
2023-02-08T11:39:58.530Z,101400.75
2023-02-08T11:42:47.201Z,101412.91
2023-02-08T11:45:36.229Z,101370.75
2023-02-08T11:48:51.444Z,101409.00
2023-02-08T11:51:39.564Z,101401.97
2023-02-08T11:54:41.492Z,101403.00
2023-02-08T11:57:28.590Z,101355.88
2023-02-08T12:00:27.646Z,101398.13
2023-02-08T12:03:18.718Z,101326.97
2023-02-08T12:06:17.744Z,101393.91
2023-02-08T12:09:40.294Z,101389.19
2023-02-08T12:12:46.024Z,101396.22
2023-02-08T12:16:06.501Z,101377.66
2023-02-08T12:19:12.242Z,101372.50
2023-02-08T12:22:04.379Z,101369.94
2023-02-08T12:24:59.609Z,101371.56
2023-02-08T12:28:12.995Z,101377.63
2023-02-08T12:31:41.900Z,101359.38
2023-02-08T12:34:43.927Z,101373.94
2023-02-08T12:38:13.047Z,101350.31
2023-02-08T12:41:12.138Z,101357.44
2023-02-08T12:44:09.347Z,101345.91
2023-02-08T12:47:30.412Z,101345.41
2023-02-08T12:50:41.879Z,101355.38
2023-02-08T12:53:39.870Z,101310.28
2023-02-08T12:56:40.584Z,101289.31
2023-02-08T12:59:40.635Z,101349.56
2023-02-08T13:02:59.792Z,101345.47
2023-02-08T13:06:01.607Z,101324.47
2023-02-08T13:09:04.117Z,101338.38
2023-02-08T13:12:06.747Z,101272.09
2023-02-08T13:15:28.391Z,101314.63
2023-02-08T13:18:35.494Z,101332.91
2023-02-08T13:21:32.619Z,101331.75
2023-02-08T13:24:27.845Z,101286.59
2023-02-08T13:27:21.358Z,101253.78
2023-02-08T13:30:19.855Z,101321.38
2023-02-08T13:33:28.973Z,101292.34
2023-02-08T13:36:33.468Z,101310.28
2023-02-08T13:39:46.448Z,101317.41
2023-02-08T13:42:49.159Z,101272.22
2023-02-08T13:45:45.443Z,101238.28
2023-02-08T13:48:48.208Z,101305.94
2023-02-08T13:51:35.238Z,101306.38
2023-02-08T13:54:23.276Z,101259.53
2023-02-08T13:57:55.870Z,101302.84
2023-02-08T14:00:55.171Z,101301.84
2023-02-08T14:03:42.399Z,101273.22
2023-02-08T14:06:31.104Z,101295.69
2023-02-08T14:09:24.765Z,101294.63
2023-02-08T14:12:49.946Z,101262.16
2023-02-08T14:15:40.003Z,101276.88
2023-02-08T14:18:28.940Z,101239.44
2023-02-08T14:21:36.576Z,101264.66
2023-02-08T14:24:26.601Z,101280.09
2023-02-08T14:27:41.142Z,101280.34
2023-02-08T14:30:31.972Z,101276.13
2023-02-08T14:33:25.396Z,101244.56
2023-02-08T14:36:30.900Z,101284.47
2023-02-08T14:39:26.439Z,101288.28
2023-02-08T14:42:14.493Z,101288.69
2023-02-08T14:45:02.720Z,101288.53
2023-02-08T14:47:55.741Z,101266.25
2023-02-08T14:50:52.322Z,101248.28
2023-02-08T14:53:42.282Z,101285.34
2023-02-08T14:56:33.731Z,101267.56
2023-02-08T14:59:25.569Z,101297.28
2023-02-08T15:02:20.454Z,101251.97
2023-02-08T15:05:10.703Z,101285.31
2023-02-08T15:07:58.442Z,101305.25
2023-02-08T15:10:46.132Z,101294.19
2023-02-08T15:13:35.339Z,101308.38
2023-02-08T15:16:48.753Z,101270.06
2023-02-08T15:19:43.316Z,101308.78
2023-02-08T15:22:34.953Z,101304.47
2023-02-08T15:25:26.880Z,101274.88
2023-02-08T15:28:22.052Z,101293.47
2023-02-08T15:31:14.644Z,101292.66
2023-02-08T15:34:04.241Z,101301.41
2023-02-08T15:36:54.168Z,101300.59
2023-02-08T15:39:41.567Z,101296.34
2023-02-08T15:42:33.863Z,101289.31
2023-02-08T15:45:26.974Z,101303.44
2023-02-08T15:48:14.332Z,101298.44
2023-02-08T15:51:02.978Z,101285.31
2023-02-08T15:53:55.822Z,101308.25
2023-02-08T15:56:50.371Z,101302.28
2023-02-08T15:59:40.225Z,101313.56
2023-02-08T16:02:31.252Z,101303.50
2023-02-08T16:05:22.169Z,101304.25
2023-02-08T16:08:22.292Z,101321.97
2023-02-08T16:11:21.245Z,101323.78
2023-02-08T16:14:08.508Z,101302.34
2023-02-08T16:16:58.537Z,101314.38
2023-02-08T16:19:51.495Z,101321.50
2023-02-08T16:22:39.124Z,101319.81
2023-02-08T16:25:46.021Z,101331.50
2023-02-08T16:28:43.268Z,101328.88
2023-02-08T16:31:33.040Z,101328.81
2023-02-08T16:34:22.935Z,101335.91
2023-02-08T16:37:25.937Z,101315.19
2023-02-08T16:40:38.385Z,101331.94
2023-02-08T16:43:25.782Z,101332.78
2023-02-08T16:46:19.297Z,101338.09
2023-02-08T16:49:10.330Z,101324.16
2023-02-08T16:52:00.798Z,101335.66
2023-02-08T16:54:47.904Z,101334.03
2023-02-08T16:57:46.095Z,101344.44
2023-02-08T17:00:35.665Z,101305.28
2023-02-08T17:03:22.954Z,101324.47
2023-02-08T17:06:31.783Z,101333.16
2023-02-08T17:09:19.857Z,101342.03
2023-02-08T17:12:21.734Z,101343.69
2023-02-08T17:15:10.309Z,101342.03
2023-02-08T17:17:58.005Z,101344.88
2023-02-08T17:20:45.839Z,101356.94
2023-02-08T17:23:34.678Z,101341.31
2023-02-08T17:26:48.419Z,101289.13
2023-02-08T17:29:35.997Z,101352.84
2023-02-08T17:32:23.605Z,101346.91
2023-02-08T17:35:15.850Z,101354.75
2023-02-08T17:38:04.449Z,101363.44
2023-02-08T17:40:51.999Z,101356.53
2023-02-08T17:43:39.824Z,101351.19
2023-02-08T17:46:30.804Z,101364.50
2023-02-08T17:49:18.328Z,101362.75
2023-02-08T17:52:07.166Z,101362.88
2023-02-08T17:54:55.238Z,101375.13
2023-02-08T17:57:44.250Z,101351.56
2023-02-08T18:00:33.273Z,101353.38
2023-02-08T18:03:22.279Z,101361.19
2023-02-08T18:06:10.090Z,101361.22
2023-02-08T18:08:58.140Z,101365.63
2023-02-08T18:11:46.150Z,101362.19
2023-02-08T18:14:34.285Z,101366.41
2023-02-08T18:17:22.763Z,101358.59
2023-02-08T18:20:16.767Z,101357.81
2023-02-08T18:23:04.321Z,101353.34
2023-02-08T18:25:52.612Z,101345.78
2023-02-08T18:28:43.912Z,101355.16
2023-02-08T18:31:34.158Z,101357.94
2023-02-08T18:34:21.962Z,101366.00
2023-02-08T18:37:10.518Z,101332.91
2023-02-08T18:39:58.492Z,101347.69
2023-02-08T18:42:46.775Z,101354.66
2023-02-08T18:45:34.799Z,101331.22
2023-02-08T18:48:22.896Z,101350.31
2023-02-08T18:51:11.853Z,101348.75
2023-02-08T18:54:00.377Z,101341.75
2023-02-08T18:56:52.870Z,101335.56
2023-02-08T18:59:42.005Z,101337.16
2023-02-08T19:02:31.973Z,101337.34
2023-02-08T19:05:20.182Z,101347.06
2023-02-08T19:08:08.015Z,101339.22
2023-02-08T19:10:55.883Z,101330.44
2023-02-08T19:13:44.896Z,101350.72
2023-02-08T19:16:37.792Z,101340.25
2023-02-08T19:19:26.175Z,101342.84
2023-02-08T19:22:17.048Z,101349.72
2023-02-08T19:25:04.842Z,101324.50
2023-02-08T19:27:53.431Z,101341.03
2023-02-08T19:30:41.560Z,101333.16
2023-02-08T19:33:30.404Z,101332.31
2023-02-08T19:36:22.749Z,101342.72
2023-02-08T19:39:15.679Z,101341.91
2023-02-08T19:42:03.946Z,101337.56
2023-02-08T19:44:52.191Z,101334.16
2023-02-08T19:47:50.943Z,101346.31
2023-02-08T19:50:39.602Z,101328.91
2023-02-08T19:53:29.312Z,101341.13
2023-02-08T19:56:22.549Z,101327.16
2023-02-08T19:59:20.162Z,101350.75
2023-02-08T20:02:11.668Z,101337.59
2023-02-08T20:04:59.685Z,101341.03
2023-02-08T20:07:47.637Z,101340.16
2023-02-08T20:10:42.749Z,101343.72
2023-02-08T20:13:32.275Z,101331.53
2023-02-08T20:16:22.470Z,101340.22
2023-02-08T20:19:12.945Z,101341.19
2023-02-08T20:22:01.621Z,101326.19
2023-02-08T20:24:51.170Z,101331.44
2023-02-08T20:27:38.966Z,101329.91
2023-02-08T20:30:27.442Z,101327.31
2023-02-08T20:33:16.094Z,101329.09
2023-02-08T20:36:10.259Z,101338.63
2023-02-08T20:39:01.705Z,101336.03
2023-02-08T20:41:49.642Z,101339.69
2023-02-08T20:44:37.620Z,101340.50
2023-02-08T20:47:27.439Z,101348.50
2023-02-08T20:50:27.004Z,101344.31
2023-02-08T20:53:15.180Z,101331.13
2023-02-08T20:56:19.512Z,101340.00
2023-02-08T20:59:16.684Z,101319.09
2023-02-08T21:02:08.364Z,101340.88
2023-02-08T21:05:00.785Z,101328.75
2023-02-08T21:07:49.334Z,101331.28
2023-02-08T21:10:37.269Z,101331.97
2023-02-08T21:13:24.703Z,101327.63
2023-02-08T21:16:14.722Z,101323.16
2023-02-08T21:19:02.486Z,101336.19
2023-02-08T21:21:53.376Z,101335.44
2023-02-08T21:24:40.650Z,101305.78
2023-02-08T21:27:27.969Z,101340.91
2023-02-08T21:30:15.257Z,101327.84
2023-02-08T21:33:05.713Z,101337.63
2023-02-08T21:35:54.778Z,101324.63
2023-02-08T21:38:43.504Z,101321.22
2023-02-08T21:41:33.486Z,101318.66
2023-02-08T21:44:21.072Z,101322.16
2023-02-08T21:47:08.354Z,101330.03
2023-02-08T21:50:14.509Z,101317.06
2023-02-08T21:53:29.237Z,101321.38
2023-02-08T21:56:16.434Z,101317.91
2023-02-08T21:59:03.512Z,101324.91
2023-02-08T22:01:50.590Z,101303.06
2023-02-08T22:04:57.398Z,101308.28
2023-02-08T22:07:50.506Z,101310.00
2023-02-08T22:10:39.444Z,101304.81
2023-02-08T22:13:28.045Z,101316.22
2023-02-08T22:16:17.316Z,101309.13
2023-02-08T22:19:06.137Z,101314.34
2023-02-08T22:21:53.203Z,101316.16
2023-02-08T22:24:40.399Z,101298.66
2023-02-08T22:27:27.916Z,101305.69
2023-02-08T22:30:18.622Z,101313.56
2023-02-08T22:33:05.780Z,101304.00
2023-02-08T22:35:56.770Z,101303.09
2023-02-08T22:38:52.619Z,101297.06
2023-02-08T22:41:39.667Z,101297.13
2023-02-08T22:44:26.687Z,101273.50
2023-02-08T22:47:14.375Z,101300.59
2023-02-08T22:50:01.712Z,101289.22
2023-02-08T22:52:48.990Z,101279.63
2023-02-08T22:55:36.011Z,101284.81
2023-02-08T22:58:24.917Z,101288.31
2023-02-08T23:01:17.189Z,101283.06
2023-02-08T23:04:04.564Z,101277.81
2023-02-08T23:06:51.633Z,101271.59
2023-02-08T23:09:38.815Z,101268.06
2023-02-08T23:12:26.084Z,101268.19
2023-02-08T23:15:13.321Z,101248.97
2023-02-08T23:18:00.487Z,101260.38
2023-02-08T23:20:47.797Z,101214.19
2023-02-08T23:23:34.922Z,101240.41
2023-02-08T23:26:22.501Z,101236.94
2023-02-08T23:29:09.640Z,101245.66
2023-02-08T23:31:56.693Z,101243.91
2023-02-08T23:34:44.116Z,101168.94
2023-02-08T23:37:34.225Z,101188.06
2023-02-08T23:40:21.669Z,101167.16
2023-02-08T23:43:09.077Z,101187.25
2023-02-08T23:45:56.451Z,101163.66
2023-02-08T23:48:44.936Z,101180.22
2023-02-08T23:51:25.425Z,101176.72
2023-02-08T23:54:03.679Z,101194.22
2023-02-08T23:56:43.670Z,101164.63
2023-02-08T23:59:23.694Z,101175.06
